Time;durP1;ratioP1;P1;durP2;ratioP2;P2;SDS_P1;SDS_P2;PMS_P1;PMS_P2;Temp;Humidity;BMP_temperature;BMP_pressure;BME280_temperature;BME280_humidity;BME280_pressure;Samples;Min_cycle;Max_cycle;Signal;HPM_P1;HPM_P2
2024/01/06 00:02:08;;;;;;;13.00;4.93;;;4.60;99.90;;;;;;4984670;28;20193;-60
2024/01/06 00:04:34;;;;;;;7.10;4.23;;;4.60;99.90;;;;;;4984509;28;20624;-59
2024/01/06 00:06:59;;;;;;;5.37;3.93;;;4.60;99.90;;;;;;4984283;28;20190;-60
2024/01/06 00:09:25;;;;;;;7.77;4.00;;;4.60;99.90;;;;;;4983840;28;20181;-61
2024/01/06 00:11:51;;;;;;;7.30;4.20;;;4.60;99.90;;;;;;4988649;28;20589;-61
2024/01/06 00:14:16;;;;;;;8.20;4.80;;;4.60;99.90;;;;;;4989570;28;20213;-60
2024/01/06 00:16:42;;;;;;;9.60;4.10;;;4.50;99.90;;;;;;4987940;28;20338;-61
2024/01/06 00:19:07;;;;;;;8.43;4.17;;;4.50;99.90;;;;;;4985431;28;20181;-61
2024/01/06 00:21:33;;;;;;;6.80;4.03;;;4.50;99.90;;;;;;4980467;28;20174;-59
2024/01/06 00:23:59;;;;;;;8.70;4.17;;;4.50;99.90;;;;;;4989783;28;20628;-61
2024/01/06 00:26:25;;;;;;;7.27;4.20;;;4.60;99.90;;;;;;4987597;28;20707;-61
2024/01/06 00:28:50;;;;;;;8.43;4.03;;;4.50;99.90;;;;;;4988840;28;20433;-61
2024/01/06 00:31:17;;;;;;;6.13;3.63;;;4.60;99.90;;;;;;4986524;28;20678;-60
2024/01/06 00:33:43;;;;;;;7.20;3.70;;;4.50;99.90;;;;;;4985327;28;20300;-61
2024/01/06 00:36:09;;;;;;;4.50;3.07;;;4.50;99.90;;;;;;4981184;28;21057;-60
2024/01/06 00:38:35;;;;;;;9.83;2.77;;;4.50;99.90;;;;;;4985699;28;20424;-60
2024/01/06 00:41:01;;;;;;;5.50;2.90;;;4.50;99.90;;;;;;4980920;28;20432;-60
2024/01/06 00:43:26;;;;;;;4.60;2.60;;;4.50;99.90;;;;;;4980444;28;20538;-60
2024/01/06 00:45:52;;;;;;;10.77;3.13;;;4.50;99.90;;;;;;4985160;28;20454;-59
2024/01/06 00:48:18;;;;;;;8.07;2.37;;;4.40;99.90;;;;;;4985525;28;20181;-60
2024/01/06 00:50:44;;;;;;;4.03;2.03;;;4.40;99.90;;;;;;4986434;28;20618;-61
2024/01/06 00:53:09;;;;;;;4.83;2.17;;;4.30;99.90;;;;;;4975432;28;20189;-61
2024/01/06 00:55:35;;;;;;;4.77;2.30;;;4.30;99.90;;;;;;4984020;28;20292;-61
2024/01/06 00:58:00;;;;;;;10.03;2.20;;;4.30;99.90;;;;;;4985919;28;20215;-59
2024/01/06 01:00:27;;;;;;;6.70;2.70;;;4.30;99.90;;;;;;4982428;28;20190;-61
2024/01/06 01:02:53;;;;;;;5.53;2.30;;;4.30;99.90;;;;;;4980262;28;21005;-59
2024/01/06 01:05:19;;;;;;;2.63;1.83;;;4.30;99.90;;;;;;4984305;28;21180;-59
2024/01/06 01:07:44;;;;;;;2.07;1.80;;;4.30;99.90;;;;;;4990137;28;20439;-60
2024/01/06 01:10:10;;;;;;;6.63;2.03;;;4.20;99.90;;;;;;4985566;28;20430;-59
2024/01/06 01:12:36;;;;;;;4.43;2.50;;;4.20;99.90;;;;;;4991339;28;20238;-60
2024/01/06 01:15:03;;;;;;;3.50;1.97;;;4.20;99.90;;;;;;4990210;28;20216;-60
2024/01/06 01:17:29;;;;;;;3.60;2.10;;;4.20;99.90;;;;;;4984169;28;20532;-60
2024/01/06 01:19:55;;;;;;;2.43;2.00;;;4.20;99.90;;;;;;4987353;28;20428;-59
2024/01/06 01:22:21;;;;;;;2.57;1.77;;;4.20;99.90;;;;;;4982410;28;20435;-60
2024/01/06 01:24:46;;;;;;;3.20;2.17;;;4.20;99.90;;;;;;4980506;28;20185;-60
2024/01/06 01:27:12;;;;;;;5.00;2.27;;;4.20;99.90;;;;;;4974948;28;20177;-60
2024/01/06 01:29:38;;;;;;;6.83;2.53;;;4.20;99.90;;;;;;4983580;28;20672;-60
2024/01/06 01:32:04;;;;;;;3.53;2.30;;;4.20;99.90;;;;;;4983147;28;20180;-59
2024/01/06 01:34:29;;;;;;;5.70;2.50;;;4.20;99.90;;;;;;4978236;28;20300;-60
2024/01/06 01:36:55;;;;;;;2.90;2.30;;;4.20;99.90;;;;;;4983446;28;21071;-60
2024/01/06 01:39:21;;;;;;;6.53;2.10;;;4.20;99.90;;;;;;4981028;28;20170;-60
2024/01/06 01:41:46;;;;;;;4.43;2.17;;;4.20;99.90;;;;;;4984091;28;20191;-60
2024/01/06 01:44:12;;;;;;;7.90;2.07;;;4.20;99.90;;;;;;4986370;28;20193;-60
2024/01/06 01:46:38;;;;;;;3.90;2.53;;;4.10;99.90;;;;;;4975239;28;20691;-60
2024/01/06 01:49:04;;;;;;;6.60;2.17;;;4.10;99.90;;;;;;4985328;28;20268;-60
2024/01/06 01:51:33;;;;;;;5.90;1.87;;;4.10;99.90;;;;;;4982200;28;20180;-60
2024/01/06 01:54:01;;;;;;;5.03;2.23;;;4.10;99.90;;;;;;4981542;28;20436;-59
2024/01/06 01:56:27;;;;;;;2.33;1.90;;;4.10;99.90;;;;;;4975675;28;20957;-60
2024/01/06 01:58:54;;;;;;;4.73;2.17;;;4.10;99.90;;;;;;4986091;28;20440;-60
2024/01/06 02:01:19;;;;;;;2.17;1.87;;;4.10;99.90;;;;;;4983534;28;20424;-60
2024/01/06 02:03:45;;;;;;;3.13;2.27;;;4.10;99.90;;;;;;4982045;28;20493;-60
2024/01/06 02:06:12;;;;;;;2.80;1.90;;;4.10;99.90;;;;;;4975936;28;20487;-60
2024/01/06 02:08:38;;;;;;;3.17;1.90;;;4.00;99.90;;;;;;4981069;28;20727;-60
2024/01/06 02:11:04;;;;;;;5.90;2.30;;;4.00;99.90;;;;;;4978493;28;20444;-60
2024/01/06 02:13:37;;;;;;;5.23;2.57;;;4.00;99.90;;;;;;4979416;28;20204;-60
2024/01/06 02:16:04;;;;;;;3.50;2.67;;;4.00;99.90;;;;;;4974150;28;20475;-59
2024/01/06 02:18:30;;;;;;;5.17;2.30;;;4.00;99.90;;;;;;4982107;28;20432;-59
2024/01/06 02:20:58;;;;;;;12.33;2.27;;;4.00;99.90;;;;;;4980771;28;21266;-60
2024/01/06 02:23:24;;;;;;;2.53;2.10;;;4.00;99.90;;;;;;4980009;28;20487;-59
2024/01/06 02:25:50;;;;;;;2.53;2.27;;;4.00;99.90;;;;;;4979190;28;20455;-60
2024/01/06 02:28:15;;;;;;;3.77;2.30;;;4.00;99.90;;;;;;4982714;28;20168;-60
2024/01/06 02:30:41;;;;;;;2.90;2.57;;;4.00;99.90;;;;;;4981850;28;20192;-59
2024/01/06 02:33:06;;;;;;;4.70;2.80;;;4.00;99.90;;;;;;4980927;28;20789;-59
2024/01/06 02:35:32;;;;;;;6.83;2.80;;;4.00;99.90;;;;;;4982599;28;20220;-59
2024/01/06 02:37:57;;;;;;;6.47;2.37;;;4.00;99.90;;;;;;4982152;28;20230;-60
2024/01/06 02:40:23;;;;;;;6.77;2.30;;;4.00;99.90;;;;;;4983558;28;20625;-60
2024/01/06 02:42:49;;;;;;;4.03;2.30;;;4.00;99.90;;;;;;4975453;28;20227;-59
2024/01/06 02:45:14;;;;;;;2.50;2.00;;;4.00;99.90;;;;;;4976148;28;20517;-60
2024/01/06 02:47:40;;;;;;;3.60;2.43;;;4.00;99.90;;;;;;4978068;28;20185;-59
2024/01/06 02:50:06;;;;;;;6.87;2.40;;;3.90;99.90;;;;;;4995749;28;20195;-60
2024/01/06 02:52:31;;;;;;;6.27;3.00;;;3.90;99.90;;;;;;4977035;28;20181;-60
2024/01/06 02:54:57;;;;;;;5.70;3.13;;;4.00;99.90;;;;;;4983412;28;20476;-61
2024/01/06 02:57:23;;;;;;;3.07;2.50;;;4.00;99.90;;;;;;4979995;28;20266;-61
2024/01/06 02:59:48;;;;;;;4.40;2.20;;;3.90;99.90;;;;;;4982798;28;20188;-61
2024/01/06 03:02:14;;;;;;;8.30;2.53;;;3.90;99.90;;;;;;4983612;28;20177;-60
2024/01/06 03:04:40;;;;;;;4.77;2.50;;;3.90;99.90;;;;;;4987335;28;20200;-61
2024/01/06 03:07:05;;;;;;;3.33;2.30;;;3.90;99.90;;;;;;4983886;28;20176;-60
2024/01/06 03:09:31;;;;;;;3.30;2.30;;;3.90;99.90;;;;;;4979707;28;20651;-59
2024/01/06 03:11:56;;;;;;;5.37;2.30;;;3.90;99.90;;;;;;4986690;28;20181;-61
2024/01/06 03:14:22;;;;;;;6.60;2.90;;;3.80;99.90;;;;;;4983440;28;20205;-61
2024/01/06 03:16:48;;;;;;;3.50;2.50;;;3.80;99.90;;;;;;4985005;28;20731;-61
2024/01/06 03:19:13;;;;;;;6.20;2.40;;;3.80;99.90;;;;;;4983561;28;20174;-61
2024/01/06 03:21:39;;;;;;;2.47;2.27;;;3.80;99.90;;;;;;4983603;28;20184;-61
2024/01/06 03:24:06;;;;;;;7.13;3.20;;;3.80;99.90;;;;;;4985373;28;20185;-60
2024/01/06 03:26:32;;;;;;;9.97;2.30;;;3.80;99.90;;;;;;4977602;28;20181;-60
2024/01/06 03:28:59;;;;;;;7.03;2.57;;;3.80;99.90;;;;;;4983155;28;20519;-60
2024/01/06 03:31:25;;;;;;;5.03;2.47;;;3.80;99.90;;;;;;4981681;28;20960;-60
2024/01/06 03:33:53;;;;;;;3.90;2.50;;;3.80;99.90;;;;;;4986019;28;20495;-60
2024/01/06 03:36:19;;;;;;;3.50;2.60;;;3.80;99.90;;;;;;4981329;28;20231;-60
2024/01/06 03:38:44;;;;;;;4.20;2.10;;;3.80;99.90;;;;;;4981391;28;20909;-60
2024/01/06 03:41:10;;;;;;;4.77;3.30;;;3.80;99.90;;;;;;4985094;28;20173;-61
2024/01/06 03:43:36;;;;;;;3.10;2.80;;;3.90;99.90;;;;;;4986580;28;20176;-61
2024/01/06 03:46:01;;;;;;;3.00;2.57;;;3.80;99.90;;;;;;4983820;28;20537;-60
2024/01/06 03:48:27;;;;;;;11.47;2.83;;;3.90;99.90;;;;;;4977626;28;20272;-61
2024/01/06 03:50:52;;;;;;;6.23;2.70;;;3.90;99.90;;;;;;4982856;28;20906;-61
2024/01/06 03:53:18;;;;;;;4.30;2.60;;;3.90;99.90;;;;;;4978050;28;20311;-61
2024/01/06 03:55:43;;;;;;;5.93;2.87;;;3.90;99.90;;;;;;4983230;28;20201;-60
2024/01/06 03:58:09;;;;;;;5.97;2.90;;;3.90;99.90;;;;;;4980085;28;20195;-60
2024/01/06 04:00:35;;;;;;;5.87;2.50;;;3.90;99.90;;;;;;4985359;28;20209;-58
2024/01/06 04:03:00;;;;;;;2.67;2.27;;;3.90;99.90;;;;;;4986015;28;20176;-60
2024/01/06 04:05:26;;;;;;;6.10;3.20;;;3.90;99.90;;;;;;4982236;28;20251;-57
2024/01/06 04:07:52;;;;;;;10.90;2.97;;;3.90;99.90;;;;;;4979620;28;20263;-60
2024/01/06 04:10:17;;;;;;;6.20;2.90;;;3.90;99.90;;;;;;4981976;28;20181;-60
2024/01/06 04:12:43;;;;;;;7.07;2.93;;;3.90;99.90;;;;;;4983106;28;20196;-60
2024/01/06 04:15:08;;;;;;;3.17;2.87;;;3.90;99.90;;;;;;4979180;28;20817;-60
2024/01/06 04:17:34;;;;;;;2.93;2.70;;;3.90;99.90;;;;;;4980523;28;20177;-60
2024/01/06 04:20:00;;;;;;;5.37;3.00;;;3.90;99.90;;;;;;4982380;28;20169;-60
2024/01/06 04:22:25;;;;;;;4.00;3.00;;;3.90;99.90;;;;;;4986129;28;20173;-60
2024/01/06 04:24:51;;;;;;;4.03;2.60;;;3.90;99.90;;;;;;4980615;28;20201;-60
2024/01/06 04:27:18;;;;;;;3.47;2.97;;;3.90;99.90;;;;;;4978922;28;20182;-60
2024/01/06 04:29:43;;;;;;;4.30;2.90;;;3.90;99.90;;;;;;4978305;28;20442;-60
2024/01/06 04:32:09;;;;;;;6.23;2.70;;;3.90;99.90;;;;;;4985295;28;20793;-60
2024/01/06 04:34:34;;;;;;;9.50;3.10;;;3.90;99.90;;;;;;4988523;28;20200;-58
2024/01/06 04:37:00;;;;;;;6.97;2.87;;;3.80;99.90;;;;;;4985548;28;20205;-60
2024/01/06 04:39:26;;;;;;;4.33;2.77;;;3.80;99.90;;;;;;4983361;28;20933;-60
2024/01/06 04:41:51;;;;;;;9.43;3.77;;;3.80;99.90;;;;;;4989386;28;20185;-60
2024/01/06 04:44:20;;;;;;;6.83;3.23;;;3.80;99.90;;;;;;4989232;28;20335;-60
2024/01/06 04:46:46;;;;;;;4.80;3.40;;;3.80;99.90;;;;;;4984340;28;20184;-60
2024/01/06 04:49:12;;;;;;;4.20;2.60;;;3.80;99.90;;;;;;4982310;28;20409;-60
2024/01/06 04:51:37;;;;;;;5.67;3.37;;;3.80;99.90;;;;;;4985039;28;20215;-60
2024/01/06 04:54:03;;;;;;;6.30;2.80;;;3.80;99.90;;;;;;4990095;28;20455;-60
2024/01/06 04:56:29;;;;;;;9.97;3.20;;;3.80;99.90;;;;;;4977812;28;20288;-60
2024/01/06 04:58:54;;;;;;;9.20;2.63;;;3.80;99.90;;;;;;4986663;28;20181;-60
2024/01/06 05:01:20;;;;;;;5.70;3.00;;;3.80;99.90;;;;;;4986451;28;20181;-60
2024/01/06 05:03:46;;;;;;;8.17;4.50;;;3.80;99.90;;;;;;4989078;28;20185;-60
2024/01/06 05:06:12;;;;;;;4.63;3.20;;;3.80;99.90;;;;;;4985048;28;20193;-60
2024/01/06 05:08:43;;;;;;;7.67;3.70;;;3.80;99.90;;;;;;4987637;28;20193;-61
2024/01/06 05:11:09;;;;;;;7.30;4.30;;;3.70;99.90;;;;;;4981306;28;20965;-61
2024/01/06 05:13:34;;;;;;;14.27;6.30;;;3.80;99.90;;;;;;4981013;28;20477;-60
2024/01/06 05:16:00;;;;;;;11.47;4.97;;;3.70;99.90;;;;;;4984260;28;21559;-61
2024/01/06 05:18:26;;;;;;;4.73;3.90;;;3.70;99.90;;;;;;4988528;28;20177;-61
2024/01/06 05:20:51;;;;;;;4.97;3.30;;;3.70;99.90;;;;;;4986634;28;20183;-60
2024/01/06 05:23:17;;;;;;;7.73;2.73;;;3.70;99.90;;;;;;4986116;28;20223;-60
2024/01/06 05:25:42;;;;;;;3.97;2.37;;;3.70;99.90;;;;;;4984528;28;20263;-60
2024/01/06 05:28:08;;;;;;;9.87;2.70;;;3.70;99.90;;;;;;4986266;28;20198;-60
2024/01/06 05:30:33;;;;;;;3.50;2.53;;;3.70;99.90;;;;;;4985100;28;20181;-60
2024/01/06 05:32:59;;;;;;;4.10;2.80;;;3.70;99.90;;;;;;4986667;28;20212;-61
2024/01/06 05:35:25;;;;;;;5.57;2.23;;;3.70;99.90;;;;;;4987359;28;20704;-60
2024/01/06 05:37:50;;;;;;;4.47;2.17;;;3.70;99.90;;;;;;4982294;28;20177;-61
2024/01/06 05:40:16;;;;;;;2.73;2.53;;;3.70;99.90;;;;;;4986163;28;20169;-61
2024/01/06 05:42:42;;;;;;;7.30;2.80;;;3.70;99.90;;;;;;4986517;28;20181;-61
2024/01/06 05:45:11;;;;;;;6.40;3.10;;;3.70;99.90;;;;;;4980684;28;20346;-61
2024/01/06 05:47:37;;;;;;;5.87;3.53;;;3.70;99.90;;;;;;4985639;28;20192;-60
2024/01/06 05:50:03;;;;;;;13.30;4.40;;;3.70;99.90;;;;;;4984787;28;20801;-60
2024/01/06 05:52:28;;;;;;;8.17;3.50;;;3.60;99.90;;;;;;4982797;28;20181;-61
2024/01/06 05:54:54;;;;;;;7.23;3.40;;;3.60;99.90;;;;;;4985533;28;20208;-60
2024/01/06 05:57:19;;;;;;;8.03;3.83;;;3.60;99.90;;;;;;4983667;28;20653;-61
2024/01/06 05:59:45;;;;;;;6.70;3.00;;;3.60;99.90;;;;;;4986078;28;20181;-60
2024/01/06 06:02:11;;;;;;;3.43;2.80;;;3.60;99.90;;;;;;4984460;28;20261;-61
2024/01/06 06:04:36;;;;;;;11.53;3.33;;;3.60;99.90;;;;;;4988165;28;20502;-60
2024/01/06 06:07:02;;;;;;;4.90;3.10;;;3.60;99.90;;;;;;4985145;28;20189;-60
2024/01/06 06:09:28;;;;;;;8.50;3.53;;;3.60;99.90;;;;;;4985339;28;20181;-61
2024/01/06 06:11:54;;;;;;;9.73;3.77;;;3.60;99.90;;;;;;4980129;28;20183;-60
2024/01/06 06:14:20;;;;;;;8.70;4.10;;;3.60;99.90;;;;;;4982955;28;20475;-60
2024/01/06 06:16:47;;;;;;;8.67;4.50;;;3.60;99.90;;;;;;4983294;28;20298;-61
2024/01/06 06:19:13;;;;;;;5.77;3.50;;;3.60;99.90;;;;;;4987819;28;20181;-61
2024/01/06 06:21:38;;;;;;;5.10;2.60;;;3.60;99.90;;;;;;4986662;28;20442;-61
2024/01/06 06:24:04;;;;;;;5.87;3.10;;;3.60;99.90;;;;;;4983308;28;20188;-60
2024/01/06 06:26:30;;;;;;;5.73;2.83;;;3.60;99.90;;;;;;4977263;28;20273;-60
2024/01/06 06:28:56;;;;;;;7.60;3.90;;;3.50;99.90;;;;;;4986005;28;20429;-61
2024/01/06 06:31:22;;;;;;;9.90;3.60;;;3.60;99.90;;;;;;4985492;28;20479;-60
2024/01/06 06:33:47;;;;;;;13.97;4.33;;;3.60;99.90;;;;;;4984035;28;20197;-61
2024/01/06 06:36:13;;;;;;;9.00;3.70;;;3.60;99.90;;;;;;4979796;28;20291;-61
2024/01/06 06:38:38;;;;;;;9.53;5.17;;;3.50;99.90;;;;;;4985026;28;20173;-60
2024/01/06 06:41:04;;;;;;;10.80;6.23;;;3.50;99.90;;;;;;4986175;28;20644;-60
2024/01/06 06:43:30;;;;;;;15.07;5.87;;;3.50;99.90;;;;;;4980593;28;20209;-60
2024/01/06 06:45:56;;;;;;;7.93;4.80;;;3.50;99.90;;;;;;4985078;28;20460;-61
2024/01/06 06:48:21;;;;;;;9.80;5.03;;;3.50;99.90;;;;;;4985942;28;20666;-61
2024/01/06 06:50:47;;;;;;;5.93;3.90;;;3.40;99.90;;;;;;4986517;28;20187;-60
2024/01/06 06:53:13;;;;;;;7.93;3.60;;;3.40;99.90;;;;;;4987209;28;20268;-61
2024/01/06 06:55:40;;;;;;;4.57;3.40;;;3.40;99.90;;;;;;4980686;28;20208;-60
2024/01/06 06:58:06;;;;;;;7.67;3.83;;;3.40;99.90;;;;;;4985657;28;20496;-60
2024/01/06 07:00:32;;;;;;;6.70;3.40;;;3.40;99.90;;;;;;4982393;28;20495;-60
2024/01/06 07:02:58;;;;;;;10.83;4.07;;;3.40;99.90;;;;;;4984978;28;20509;-61
2024/01/06 07:05:24;;;;;;;6.70;3.83;;;3.30;99.90;;;;;;4983073;28;20935;-62
2024/01/06 07:07:49;;;;;;;8.23;3.87;;;3.40;99.90;;;;;;4981899;28;20460;-59
2024/01/06 07:10:15;;;;;;;4.67;3.27;;;3.30;99.90;;;;;;4985779;28;20189;-61
2024/01/06 07:12:41;;;;;;;5.47;3.00;;;3.30;99.90;;;;;;4982891;28;20188;-61
2024/01/06 07:15:09;;;;;;;9.83;3.73;;;3.30;99.90;;;;;;4981497;28;20282;-61
2024/01/06 07:17:35;;;;;;;8.33;3.17;;;3.30;99.90;;;;;;4985872;28;20185;-60
2024/01/06 07:20:01;;;;;;;6.60;4.00;;;3.30;99.90;;;;;;4985092;28;20439;-61
2024/01/06 07:22:27;;;;;;;7.43;3.40;;;3.30;99.90;;;;;;4983150;28;20211;-61
2024/01/06 07:24:53;;;;;;;8.70;3.80;;;3.30;99.90;;;;;;4984273;28;20498;-60
2024/01/06 07:27:18;;;;;;;5.27;3.40;;;3.40;99.90;;;;;;4984483;28;20198;-60
2024/01/06 07:29:44;;;;;;;7.33;3.90;;;3.30;99.90;;;;;;4984487;28;20751;-60
2024/01/06 07:32:09;;;;;;;7.10;3.73;;;3.30;99.90;;;;;;4986532;28;20183;-60
2024/01/06 07:34:35;;;;;;;13.20;5.17;;;3.40;99.90;;;;;;4980847;28;20605;-61
2024/01/06 07:37:00;;;;;;;6.20;4.67;;;3.40;99.90;;;;;;4981127;28;20697;-61
2024/01/06 07:39:26;;;;;;;10.60;5.70;;;3.30;99.90;;;;;;4986164;28;20267;-61
2024/01/06 07:41:52;;;;;;;5.67;4.60;;;3.30;99.90;;;;;;4980820;28;20572;-60
2024/01/06 07:44:24;;;;;;;9.77;4.90;;;3.20;99.90;;;;;;4986933;28;20204;-60
2024/01/06 07:46:53;;;;;;;5.47;3.80;;;3.20;99.90;;;;;;4983486;28;20234;-61
2024/01/06 07:49:18;;;;;;;3.07;2.70;;;3.20;99.90;;;;;;4987009;28;20774;-60
2024/01/06 07:51:44;;;;;;;5.00;2.87;;;3.20;99.90;;;;;;4982861;28;20440;-61
2024/01/06 07:54:11;;;;;;;7.27;5.17;;;3.20;99.90;;;;;;4985163;28;20193;-61
2024/01/06 07:56:37;;;;;;;8.40;5.23;;;3.20;99.90;;;;;;4982830;28;20314;-58
2024/01/06 07:59:04;;;;;;;5.93;3.83;;;3.20;99.90;;;;;;4979546;28;20946;-60
2024/01/06 08:01:29;;;;;;;4.13;3.30;;;3.10;99.90;;;;;;4980646;28;20181;-61
2024/01/06 08:03:55;;;;;;;4.97;3.17;;;3.20;99.90;;;;;;4985597;28;20432;-58
2024/01/06 08:06:21;;;;;;;4.57;3.73;;;3.20;99.90;;;;;;4980348;28;20233;-60
2024/01/06 08:08:46;;;;;;;5.87;4.10;;;3.20;99.90;;;;;;4983521;28;20200;-60
2024/01/06 08:11:12;;;;;;;12.00;4.30;;;3.20;99.90;;;;;;4988427;28;20446;-61
2024/01/06 08:13:38;;;;;;;12.73;3.70;;;3.20;99.90;;;;;;4987158;28;20228;-61
2024/01/06 08:16:04;;;;;;;9.90;4.90;;;3.30;99.90;;;;;;4981657;28;20209;-60
2024/01/06 08:18:30;;;;;;;11.83;6.03;;;3.30;99.90;;;;;;4988958;28;20181;-60
2024/01/06 08:20:55;;;;;;;9.80;5.87;;;3.30;99.90;;;;;;4989282;28;20424;-60
2024/01/06 08:23:21;;;;;;;16.57;9.70;;;3.30;99.90;;;;;;4988178;28;20196;-60
2024/01/06 08:25:47;;;;;;;20.90;11.40;;;3.40;99.90;;;;;;4986583;28;20243;-60
2024/01/06 08:28:14;;;;;;;14.23;7.20;;;3.40;99.90;;;;;;4988270;28;20184;-61
2024/01/06 08:30:40;;;;;;;9.33;5.40;;;3.40;99.90;;;;;;4989577;28;20629;-60
2024/01/06 08:33:06;;;;;;;10.63;5.23;;;3.40;99.90;;;;;;4985131;28;20452;-61
2024/01/06 08:35:31;;;;;;;11.17;4.63;;;3.50;99.90;;;;;;4985611;28;20471;-60
2024/01/06 08:37:57;;;;;;;9.63;5.50;;;3.50;99.90;;;;;;4987868;28;20265;-61
2024/01/06 08:40:23;;;;;;;5.53;3.93;;;3.50;99.90;;;;;;4988941;28;20184;-61
2024/01/06 08:42:49;;;;;;;10.20;4.90;;;3.50;99.90;;;;;;4988498;28;20255;-60
2024/01/06 08:45:14;;;;;;;12.40;4.87;;;3.50;99.90;;;;;;4978447;28;20209;-60
2024/01/06 08:47:40;;;;;;;10.40;4.90;;;3.50;99.90;;;;;;4982242;28;20437;-60
2024/01/06 08:50:06;;;;;;;9.73;4.80;;;3.60;99.90;;;;;;4988620;28;20520;-60
2024/01/06 08:52:32;;;;;;;10.97;5.03;;;3.60;99.90;;;;;;4967785;28;20268;-59
2024/01/06 08:54:57;;;;;;;8.10;4.00;;;3.70;99.90;;;;;;4987086;28;20534;-60
2024/01/06 08:57:23;;;;;;;7.33;4.17;;;3.70;99.90;;;;;;4983853;28;20824;-60
2024/01/06 08:59:48;;;;;;;9.80;3.97;;;3.70;99.90;;;;;;4986059;28;20193;-60
2024/01/06 09:02:14;;;;;;;8.40;5.07;;;3.80;99.90;;;;;;4984636;28;20271;-60
2024/01/06 09:04:39;;;;;;;7.63;5.27;;;3.80;99.90;;;;;;4978483;28;20215;-61
2024/01/06 09:07:05;;;;;;;7.87;4.60;;;3.90;99.90;;;;;;4986061;28;20189;-60
2024/01/06 09:09:31;;;;;;;9.90;5.73;;;3.90;99.90;;;;;;4982359;28;20935;-59
2024/01/06 09:11:57;;;;;;;13.23;6.23;;;3.90;99.90;;;;;;4985446;28;20506;-59
2024/01/06 09:14:23;;;;;;;7.97;4.80;;;4.00;99.90;;;;;;4986740;28;20300;-60
2024/01/06 09:16:48;;;;;;;9.00;4.87;;;4.00;99.90;;;;;;4982789;28;20738;-60
2024/01/06 09:19:14;;;;;;;7.50;4.13;;;4.00;99.90;;;;;;4985100;28;20176;-60
2024/01/06 09:21:39;;;;;;;6.70;4.50;;;4.00;99.90;;;;;;4986609;28;20679;-61
2024/01/06 09:24:06;;;;;;;9.53;3.83;;;4.00;99.90;;;;;;4986627;28;20183;-60
2024/01/06 09:26:33;;;;;;;11.33;4.10;;;4.00;99.90;;;;;;4984130;28;20231;-60
2024/01/06 09:29:00;;;;;;;4.57;3.27;;;3.90;99.90;;;;;;4987212;28;21109;-60
2024/01/06 09:31:26;;;;;;;3.77;3.33;;;3.90;99.90;;;;;;4984249;28;20444;-59
2024/01/06 09:33:51;;;;;;;4.53;3.57;;;3.90;99.90;;;;;;4986733;28;20443;-60
2024/01/06 09:36:17;;;;;;;4.53;3.70;;;3.90;99.90;;;;;;4980229;28;20210;-60
2024/01/06 09:38:43;;;;;;;4.80;3.70;;;3.90;99.90;;;;;;4984943;28;20215;-60
2024/01/06 09:41:09;;;;;;;5.93;4.13;;;3.90;99.90;;;;;;4983781;28;20448;-60
2024/01/06 09:43:34;;;;;;;5.20;3.70;;;3.90;99.90;;;;;;4984605;28;20656;-60
2024/01/06 09:46:29;;;;;;;5.83;4.23;;;3.80;99.90;;;;;;4984610;28;20205;-60
2024/01/06 09:48:56;;;;;;;5.73;4.13;;;3.90;99.90;;;;;;4983481;28;20188;-59
2024/01/06 09:51:22;;;;;;;5.00;3.80;;;3.90;99.90;;;;;;4984894;28;20443;-60
2024/01/06 09:53:59;;;;;;;11.33;4.33;;;3.90;99.90;;;;;;4983911;28;20934;-60
2024/01/06 09:56:26;;;;;;;9.23;4.03;;;4.00;99.90;;;;;;4979636;28;20460;-60
2024/01/06 09:58:52;;;;;;;3.93;3.40;;;4.10;99.90;;;;;;4982630;28;20440;-60
2024/01/06 10:01:18;;;;;;;10.33;3.73;;;4.20;99.90;;;;;;4985343;28;20436;-60
2024/01/06 10:03:47;;;;;;;6.70;3.80;;;4.20;99.90;;;;;;4983441;28;20447;-60
2024/01/06 10:06:16;;;;;;;4.70;2.80;;;4.30;99.90;;;;;;4980373;28;20456;-59
2024/01/06 10:08:43;;;;;;;8.93;3.60;;;4.40;99.90;;;;;;4976615;28;20533;-62
2024/01/06 10:11:10;;;;;;;5.23;3.20;;;4.40;99.90;;;;;;4979652;28;20448;-59
2024/01/06 10:13:38;;;;;;;4.47;3.13;;;4.40;99.90;;;;;;4983704;28;21008;-60
2024/01/06 10:16:06;;;;;;;3.50;3.20;;;4.50;99.90;;;;;;4983046;28;20586;-60
2024/01/06 10:18:34;;;;;;;9.43;3.87;;;4.50;99.90;;;;;;4983625;28;20847;-60
2024/01/06 10:21:00;;;;;;;9.83;3.47;;;4.50;99.90;;;;;;4986788;28;20447;-60
2024/01/06 10:23:29;;;;;;;5.50;3.50;;;4.50;99.90;;;;;;4982470;28;20503;-60
2024/01/06 10:25:55;;;;;;;2.97;2.67;;;4.50;99.90;;;;;;4986377;28;20211;-60
2024/01/06 10:28:25;;;;;;;5.10;3.30;;;4.50;99.90;;;;;;4984295;28;20450;-60
2024/01/06 10:30:55;;;;;;;5.10;3.50;;;4.50;99.90;;;;;;4978552;28;20481;-59
2024/01/06 10:33:22;;;;;;;4.40;2.83;;;4.60;99.90;;;;;;4976328;28;20534;-58
2024/01/06 10:35:48;;;;;;;7.20;3.50;;;4.60;99.90;;;;;;4972734;28;21018;-58
2024/01/06 10:38:15;;;;;;;3.83;2.93;;;4.60;99.90;;;;;;4980830;28;20543;-59
2024/01/06 10:40:59;;;;;;;9.80;3.37;;;4.60;99.90;;;;;;4982278;28;20780;-59
2024/01/06 10:43:27;;;;;;;8.00;3.70;;;4.60;99.90;;;;;;4984120;28;20424;-60
2024/01/06 10:45:57;;;;;;;4.83;2.90;;;4.70;99.90;;;;;;4979364;28;20824;-60
2024/01/06 10:48:24;;;;;;;4.47;3.13;;;4.70;99.90;;;;;;4977556;28;20444;-60
2024/01/06 10:50:51;;;;;;;3.40;2.67;;;4.70;99.90;;;;;;4971877;28;20428;-59
2024/01/06 10:53:18;;;;;;;2.57;2.37;;;4.70;99.90;;;;;;4980833;28;20436;-59
2024/01/06 10:55:45;;;;;;;11.13;3.00;;;4.70;99.90;;;;;;4976904;28;20884;-61
2024/01/06 10:58:12;;;;;;;8.20;3.30;;;4.70;99.90;;;;;;4974810;28;20568;-60
2024/01/06 11:00:38;;;;;;;5.07;3.10;;;4.70;99.90;;;;;;4976756;28;20447;-59
2024/01/06 11:03:05;;;;;;;5.10;2.77;;;4.70;99.90;;;;;;4984725;28;20400;-59
2024/01/06 11:05:31;;;;;;;11.57;2.63;;;4.70;99.90;;;;;;4975670;28;21062;-59
2024/01/06 11:08:00;;;;;;;3.33;2.33;;;4.70;99.90;;;;;;4984904;28;20440;-59
2024/01/06 11:10:29;;;;;;;3.13;2.03;;;4.70;99.90;;;;;;4985800;28;20444;-59
2024/01/06 11:13:13;;;;;;;5.60;2.40;;;4.70;99.90;;;;;;4983761;28;20452;-59
2024/01/06 11:15:47;;;;;;;2.93;2.40;;;4.80;99.90;;;;;;4978522;28;20488;-59
2024/01/06 11:18:35;;;;;;;5.57;2.67;;;4.80;99.90;;;;;;4984158;28;20962;-59
2024/01/06 11:21:21;;;;;;;2.30;1.87;;;4.80;99.90;;;;;;4985472;28;20953;-59
2024/01/06 11:24:24;;;;;;;2.33;2.13;;;4.90;99.90;;;;;;4985149;28;20428;-58
2024/01/06 11:26:52;;;;;;;4.87;2.60;;;4.90;99.90;;;;;;4982471;28;20440;-58
2024/01/06 11:29:19;;;;;;;4.77;2.97;;;4.90;99.90;;;;;;4983320;28;20436;-58
2024/01/06 11:32:16;;;;;;;5.27;3.10;;;4.90;99.90;;;;;;4979166;28;20458;-59
2024/01/06 11:34:42;;;;;;;8.50;3.37;;;5.00;99.90;;;;;;4984523;28;20468;-59
2024/01/06 11:37:09;;;;;;;5.17;2.80;;;5.00;99.90;;;;;;4985840;28;20470;-60
2024/01/06 11:39:40;;;;;;;11.67;3.33;;;5.00;99.90;;;;;;4984335;28;20188;-59
2024/01/06 11:42:09;;;;;;;6.10;3.47;;;5.00;99.90;;;;;;4984555;28;20483;-59
2024/01/06 11:44:38;;;;;;;4.30;2.90;;;4.90;99.90;;;;;;4987415;28;20493;-57
2024/01/06 11:47:05;;;;;;;5.33;2.60;;;4.90;99.90;;;;;;4986292;28;20436;-59
2024/01/06 11:49:31;;;;;;;7.30;3.13;;;4.90;99.90;;;;;;4981598;28;20437;-59
2024/01/06 11:51:57;;;;;;;3.40;2.20;;;4.90;99.90;;;;;;4988568;28;20483;-59
2024/01/06 11:54:23;;;;;;;3.30;2.50;;;4.80;99.90;;;;;;4989727;28;20695;-58
2024/01/06 11:56:49;;;;;;;3.23;2.93;;;4.80;99.90;;;;;;4983257;28;20460;-58
2024/01/06 11:59:15;;;;;;;3.13;2.47;;;4.80;99.90;;;;;;4988998;28;21236;-59
2024/01/06 12:01:42;;;;;;;8.40;3.67;;;4.80;99.90;;;;;;4989114;28;20251;-58
2024/01/06 12:04:07;;;;;;;2.33;2.07;;;4.70;99.90;;;;;;4984051;28;20173;-58
2024/01/06 12:06:33;;;;;;;2.97;2.67;;;4.70;99.90;;;;;;4983368;28;20447;-59
2024/01/06 12:09:14;;;;;;;2.67;2.47;;;4.70;99.90;;;;;;4984097;28;20283;-60
2024/01/06 12:11:40;;;;;;;3.67;3.10;;;4.70;99.90;;;;;;4990038;28;20424;-57
2024/01/06 12:14:06;;;;;;;2.43;2.27;;;4.60;99.90;;;;;;4987926;28;20960;-59
2024/01/06 12:16:32;;;;;;;10.03;2.67;;;4.60;99.90;;;;;;4988392;28;20464;-59
2024/01/06 12:19:00;;;;;;;3.50;2.40;;;4.60;99.90;;;;;;4985701;28;21025;-60
2024/01/06 12:21:27;;;;;;;2.77;2.47;;;4.50;99.90;;;;;;4990307;28;20430;-59
2024/01/06 12:23:52;;;;;;;3.70;2.70;;;4.50;99.90;;;;;;4979608;28;20432;-59
2024/01/06 12:26:19;;;;;;;4.60;2.50;;;4.50;99.90;;;;;;4985152;28;20447;-60
2024/01/06 12:28:46;;;;;;;4.00;2.63;;;4.50;99.90;;;;;;4988677;28;20189;-59
2024/01/06 12:31:12;;;;;;;3.00;2.70;;;4.50;99.90;;;;;;4990410;28;20460;-60
2024/01/06 12:33:41;;;;;;;5.87;2.70;;;4.40;99.90;;;;;;4990736;28;20450;-60
2024/01/06 12:36:08;;;;;;;2.77;2.57;;;4.50;99.90;;;;;;4987181;28;21223;-59
2024/01/06 12:38:37;;;;;;;2.73;2.53;;;4.40;99.90;;;;;;4991125;28;20420;-59
2024/01/06 12:41:04;;;;;;;5.77;2.90;;;4.40;99.90;;;;;;4987258;28;20420;-59
2024/01/06 12:43:30;;;;;;;3.83;2.80;;;4.40;99.90;;;;;;4983052;28;20470;-58
2024/01/06 12:45:57;;;;;;;3.10;2.33;;;4.40;99.90;;;;;;4985770;28;20487;-59
2024/01/06 12:48:24;;;;;;;2.80;2.03;;;4.40;99.90;;;;;;4989435;28;20200;-60
2024/01/06 12:50:49;;;;;;;5.33;2.60;;;4.40;99.90;;;;;;4987064;28;20588;-60
2024/01/06 12:53:17;;;;;;;4.17;2.40;;;4.40;99.90;;;;;;4982939;28;21240;-60